Time;durP1;ratioP1;P1;durP2;ratioP2;P2;SDS_P1;SDS_P2;PMS_P1;PMS_P2;Temp;Humidity;BMP_temperature;BMP_pressure;BME280_temperature;BME280_humidity;BME280_pressure;Samples;Min_cycle;Max_cycle;Signal;HPM_P1;HPM_P2
2021/12/11 00:01:53;;;;;;;29.83;18.00;;;;;;;2.85;100.00;100196.16;5027679;28;20451;-76
2021/12/11 00:04:33;;;;;;;28.05;17.27;;;;;;;2.84;100.00;100199.81;5011421;28;20096;-76
2021/12/11 00:07:03;;;;;;;30.13;17.00;;;;;;;2.85;100.00;100206.75;5015734;28;20041;-77
2021/12/11 00:09:34;;;;;;;30.67;17.23;;;;;;;2.84;100.00;100204.28;5016253;28;20041;-76
2021/12/11 00:12:09;;;;;;;30.13;17.73;;;;;;;2.78;100.00;100201.47;5011886;28;20040;-76
2021/12/11 00:14:39;;;;;;;29.85;17.23;;;;;;;2.82;100.00;100201.88;5011738;28;20034;-76
2021/12/11 00:17:05;;;;;;;29.65;18.30;;;;;;;2.85;100.00;100212.06;5010968;28;20037;-76
2021/12/11 00:19:36;;;;;;;34.47;18.75;;;;;;;2.78;100.00;100217.38;5027229;28;20865;-76
2021/12/11 00:22:08;;;;;;;32.37;18.17;;;;;;;2.81;100.00;100222.25;5011647;28;20485;-76
2021/12/11 00:24:37;;;;;;;37.10;18.15;;;;;;;2.79;100.00;100228.78;5027918;28;20036;-77
2021/12/11 00:27:10;;;;;;;32.17;18.60;;;;;;;2.83;100.00;100226.53;5013537;28;20124;-76
2021/12/11 00:29:38;;;;;;;33.03;18.27;;;;;;;2.80;100.00;100225.91;5016741;28;20193;-76
2021/12/11 00:32:23;;;;;;;31.13;17.63;;;;;;;2.85;100.00;100235.06;5011807;28;20133;-70
2021/12/11 00:34:50;;;;;;;33.63;17.63;;;;;;;2.77;100.00;100228.19;5015610;28;20037;-71
2021/12/11 00:37:19;;;;;;;30.55;18.05;;;;;;;2.82;100.00;100238.94;5011314;28;20155;-71
2021/12/11 00:39:53;;;;;;;29.77;18.42;;;;;;;2.79;100.00;100248.13;5005773;28;20043;-70
2021/12/11 00:42:21;;;;;;;33.50;17.75;;;;;;;2.74;100.00;100241.84;5018817;28;20033;-71
2021/12/11 00:44:55;;;;;;;31.33;17.55;;;;;;;2.76;100.00;100248.53;5014699;28;20174;-71
2021/12/11 00:47:31;;;;;;;29.92;17.33;;;;;;;2.70;100.00;100245.94;5009526;28;20033;-70
2021/12/11 00:50:10;;;;;;;27.60;17.55;;;;;;;2.69;100.00;100249.59;5016505;28;20036;-71
2021/12/11 00:52:50;;;;;;;32.33;16.55;;;;;;;2.68;100.00;100253.25;5012324;28;20497;-70
2021/12/11 00:55:34;;;;;;;25.90;15.90;;;;;;;2.72;100.00;100270.38;4997994;28;20029;-71
2021/12/11 00:58:11;;;;;;;30.90;16.25;;;;;;;2.71;100.00;100258.16;5009943;28;20116;-70
2021/12/11 01:00:45;;;;;;;30.92;16.98;;;;;;;2.72;100.00;100262.44;5009691;28;20025;-70
2021/12/11 01:03:15;;;;;;;28.98;16.60;;;;;;;2.60;100.00;100251.63;5015388;28;20501;-70
2021/12/11 01:05:43;;;;;;;26.00;15.98;;;;;;;2.75;100.00;100280.53;5010646;28;20481;-71
2021/12/11 01:08:23;;;;;;;28.27;16.10;;;;;;;2.68;100.00;100269.13;5011379;28;20037;-70
2021/12/11 01:10:53;;;;;;;30.90;17.02;;;;;;;2.66;100.00;100281.78;5020345;28;20040;-70
2021/12/11 01:13:25;;;;;;;33.45;17.75;;;;;;;2.63;100.00;100283.03;5013732;28;20499;-71
2021/12/11 01:15:55;;;;;;;;;;;;;;;2.65;100.00;100286.28;5010251;28;20069;-71
2021/12/11 01:18:33;;;;;;;31.48;16.92;;;;;;;2.67;100.00;100291.34;5010679;28;19921;-71
2021/12/11 01:21:12;;;;;;;38.88;19.15;;;;;;;2.65;100.00;100293.41;5010429;28;20084;-71
2021/12/11 01:26:13;;;;;;;45.45;20.98;;;;;;;2.68;100.00;100303.56;5009787;28;20437;-71
2021/12/11 01:28:39;;;;;;;48.95;21.77;;;;;;;2.68;100.00;100307.03;5010183;28;20076;-71
2021/12/11 01:31:08;;;;;;;45.17;22.67;;;;;;;2.79;100.00;100319.66;4997969;28;20029;-71
2021/12/11 01:33:35;;;;;;;42.15;21.27;;;;;;;2.87;100.00;100328.44;5002875;28;20763;-71
2021/12/11 01:36:01;;;;;;;45.40;21.08;;;;;;;2.89;100.00;100318.41;5008987;28;20213;-70
2021/12/11 01:38:28;;;;;;;41.95;21.20;;;;;;;2.91;100.00;100333.09;5009932;28;20689;-71
2021/12/11 01:41:16;;;;;;;39.58;21.05;;;;;;;2.98;100.00;100333.88;5010226;28;20901;-71
2021/12/11 01:43:46;;;;;;;34.92;19.67;;;;;;;3.01;100.00;100333.50;5024475;28;20336;-71
2021/12/11 01:46:17;;;;;;;39.47;18.88;;;;;;;3.02;100.00;100339.59;5010249;28;20037;-71
2021/12/11 01:48:48;;;;;;;40.40;19.38;;;;;;;3.00;100.00;100353.03;5010244;28;20030;-70
2021/12/11 01:51:26;;;;;;;38.65;19.50;;;;;;;2.97;100.00;100348.16;5008965;28;20037;-71
2021/12/11 01:53:56;;;;;;;36.15;19.20;;;;;;;3.03;100.00;100352.66;5010542;28;20125;-71
2021/12/11 01:56:31;;;;;;;34.03;18.77;;;;;;;3.04;100.00;100359.56;5010270;28;20735;-71
2021/12/11 01:59:11;;;;;;;42.13;19.95;;;;;;;3.07;100.00;100361.78;5013698;28;20033;-71
2021/12/11 02:02:03;;;;;;;42.35;19.42;;;;;;;3.06;100.00;100357.50;5009017;28;20045;-71
2021/12/11 02:04:30;;;;;;;45.15;20.38;;;;;;;3.13;100.00;100362.00;5009367;28;20422;-71
2021/12/11 02:07:03;;;;;;;44.63;19.83;;;;;;;3.07;100.00;100369.75;5008109;28;20037;-71
2021/12/11 02:09:32;;;;;;;43.88;19.83;;;;;;;3.05;100.00;100368.31;5008910;28;20029;-71
2021/12/11 02:12:06;;;;;;;43.10;20.00;;;;;;;3.02;100.00;100372.22;5023083;28;20509;-71
2021/12/11 02:14:40;;;;;;;49.60;21.35;;;;;;;2.93;100.00;100372.63;5010190;28;20171;-71
2021/12/11 02:17:12;;;;;;;67.55;28.95;;;;;;;3.01;100.00;100385.66;5007003;28;20044;-71
2021/12/11 02:19:39;;;;;;;;;;;;;;;3.05;100.00;100393.00;5009490;28;20133;-71
2021/12/11 02:22:12;;;;;;;83.28;40.22;;;;;;;3.11;100.00;100385.25;5009716;28;20244;-71
2021/12/11 02:24:41;;;;;;;69.45;33.50;;;;;;;3.18;100.00;100391.34;5000018;28;20064;-70
2021/12/11 02:27:13;;;;;;;79.10;31.60;;;;;;;3.28;100.00;100387.25;5010162;28;20043;-71
2021/12/11 02:29:46;;;;;;;93.72;43.30;;;;;;;3.35;100.00;100392.53;5013252;28;20172;-71
2021/12/11 02:32:29;;;;;;;86.50;41.65;;;;;;;3.46;100.00;100394.53;5018682;28;20049;-71
2021/12/11 02:35:03;;;;;;;87.07;38.88;;;;;;;3.44;100.00;100401.88;5008013;28;20094;-70
2021/12/11 02:38:04;;;;;;;80.55;41.13;;;;;;;3.44;100.00;100398.41;5012748;28;20159;-71
2021/12/11 02:40:35;;;;;;;89.07;39.83;;;;;;;3.45;100.00;100415.97;5010037;28;20041;-71
2021/12/11 02:43:11;;;;;;;77.47;38.17;;;;;;;3.52;100.00;100420.22;5007374;28;20056;-71
2021/12/11 02:45:46;;;;;;;69.90;35.25;;;;;;;3.55;100.00;100417.13;5017582;28;20037;-72
2021/12/11 02:48:22;;;;;;;72.53;31.13;;;;;;;3.58;100.00;100424.69;5008785;28;20129;-72
2021/12/11 02:50:54;;;;;;;68.65;31.10;;;;;;;3.53;100.00;100416.53;5008439;28;20025;-72
2021/12/11 02:53:41;;;;;;;70.18;30.67;;;;;;;3.68;100.00;100418.94;5009120;28;20543;-72
2021/12/11 02:56:16;;;;;;;75.30;36.78;;;;;;;3.68;100.00;100415.47;5012805;28;20112;-72
2021/12/11 02:58:45;;;;;;;81.75;37.83;;;;;;;3.70;100.00;100416.06;5023629;28;20051;-72
2021/12/11 03:01:23;;;;;;;95.60;39.53;;;;;;;3.62;100.00;100407.31;5018766;28;20033;-71
2021/12/11 03:04:02;;;;;;;89.25;44.00;;;;;;;3.62;100.00;100411.81;5008171;28;20056;-72
2021/12/11 03:06:36;;;;;;;77.82;40.33;;;;;;;3.65;100.00;100403.44;5013858;28;20354;-71
2021/12/11 03:09:05;;;;;;;86.45;41.38;;;;;;;3.64;100.00;100407.91;5009408;28;20049;-73
2021/12/11 03:11:35;;;;;;;96.75;42.92;;;;;;;3.57;100.00;100403.66;5013278;28;20041;-72
2021/12/11 03:14:03;;;;;;;86.88;35.20;;;;;;;3.54;100.00;100394.28;5012609;28;20029;-72
2021/12/11 03:16:33;;;;;;;87.88;34.15;;;;;;;3.51;100.00;100397.38;5013744;28;20048;-72
2021/12/11 03:19:00;;;;;;;89.57;35.72;;;;;;;3.57;100.00;100399.16;5019210;28;20253;-72
2021/12/11 03:21:25;;;;;;;99.00;37.65;;;;;;;3.69;100.00;100393.22;5012817;28;20124;-71
2021/12/11 03:23:54;;;;;;;78.70;33.13;;;;;;;3.74;100.00;100396.84;5012039;28;20497;-72
2021/12/11 03:26:23;;;;;;;84.75;34.05;;;;;;;3.79;100.00;100386.44;5017777;28;20102;-72
2021/12/11 03:28:49;;;;;;;85.05;33.75;;;;;;;3.85;100.00;100392.75;5027486;28;20033;-71
2021/12/11 03:31:17;;;;;;;84.72;32.60;;;;;;;3.95;100.00;100393.09;5013273;28;20048;-72
2021/12/11 03:33:46;;;;;;;80.53;33.03;;;;;;;4.06;100.00;100395.06;5011838;28;20025;-72
2021/12/11 03:36:17;;;;;;;98.20;35.72;;;;;;;4.07;100.00;100391.41;5020623;28;20079;-72
2021/12/11 03:38:48;;;;;;;50.60;18.67;;;;;;;4.14;100.00;100386.84;5027414;28;20124;-70
2021/12/11 03:41:13;;;;;;;60.78;26.10;;;;;;;4.26;100.00;100386.19;5011954;28;20047;-72
2021/12/11 03:43:39;;;;;;;81.63;27.88;;;;;;;4.44;100.00;100380.94;5018921;28;20109;-72
2021/12/11 03:46:09;;;;;;;62.50;15.63;;;;;;;4.56;100.00;100394.31;5011881;28;20415;-69
2021/12/11 03:48:53;;;;;;;46.97;9.32;;;;;;;4.78;100.00;100388.41;5011777;28;20033;-71
2021/12/11 03:51:24;;;;;;;36.72;4.78;;;;;;;5.30;100.00;100390.78;5012921;28;20270;-70
2021/12/11 03:53:52;;;;;;;36.88;5.68;;;;;;;5.46;100.00;100381.41;5012434;28;20029;-70
2021/12/11 03:56:22;;;;;;;28.42;3.95;;;;;;;5.70;100.00;100393.81;5018749;28;20421;-68
2021/12/11 03:58:52;;;;;;;32.10;6.10;;;;;;;5.81;100.00;100397.56;5011355;28;20060;-69
2021/12/11 04:01:27;;;;;;;22.98;4.43;;;;;;;5.91;100.00;100403.19;5015547;28;20638;-69
2021/12/11 04:03:58;;;;;;;28.35;4.13;;;;;;;5.98;100.00;100392.44;5026388;28;20049;-68
2021/12/11 04:06:28;;;;;;;25.55;3.80;;;;;;;6.03;100.00;100389.94;4995513;28;20578;-69
2021/12/11 04:08:59;;;;;;;23.63;4.70;;;;;;;6.14;100.00;100397.16;5018474;28;20392;-68
2021/12/11 04:11:33;;;;;;;18.75;3.17;;;;;;;6.11;100.00;100398.41;5000950;28;20099;-71
2021/12/11 04:14:02;;;;;;;20.90;4.40;;;;;;;6.19;100.00;100399.94;5000003;28;20140;-70
2021/12/11 04:16:29;;;;;;;21.95;3.92;;;;;;;6.25;100.00;100404.34;5016654;28;20079;-69
2021/12/11 04:19:00;;;;;;;35.55;4.80;;;;;;;6.19;100.00;100394.63;5002902;28;20390;-69
2021/12/11 04:21:26;;;;;;;21.50;4.65;;;;;;;6.28;100.00;100397.78;5000510;28;20068;-68
2021/12/11 04:23:56;;;;;;;25.13;4.40;;;;;;;6.29;100.00;100413.53;5017798;28;20290;-69
2021/12/11 04:26:24;;;;;;;33.03;5.55;;;;;;;6.33;100.00;100401.34;5011471;28;20056;-70
2021/12/11 04:28:50;;;;;;;23.08;4.90;;;;;;;6.36;100.00;100408.09;5009781;28;20296;-68
2021/12/11 04:31:20;;;;;;;23.20;4.20;;;;;;;6.43;100.00;100411.47;5026405;28;20033;-69
2021/12/11 04:33:50;;;;;;;27.77;4.38;;;;;;;6.52;100.00;100414.63;5001941;28;20026;-70
2021/12/11 04:36:21;;;;;;;28.83;4.15;;;;;;;6.51;100.00;100419.13;4999384;28;20021;-69
2021/12/11 04:38:50;;;;;;;28.33;4.35;;;;;;;6.45;100.00;100410.22;5010141;28;20271;-69
2021/12/11 04:41:34;;;;;;;30.85;3.55;;;;;;;6.45;100.00;100410.22;5015515;28;20510;-68
2021/12/11 04:44:07;;;;;;;29.15;3.85;;;;;;;6.44;100.00;100421.09;5010814;28;20034;-69
2021/12/11 04:46:32;;;;;;;24.08;3.90;;;;;;;6.44;100.00;100427.25;5016775;28;20025;-68
2021/12/11 04:49:16;;;;;;;23.00;3.70;;;;;;;6.29;100.00;100413.53;5013660;28;20569;-69
2021/12/11 04:54:26;;;;;;;41.25;5.50;;;;;;;6.37;100.00;100429.19;5009213;28;20492;-69
2021/12/11 05:08:15;;;;;;;24.33;5.20;;;;;;;6.13;100.00;100468.25;5016105;28;20133;-69
2021/12/11 05:10:52;;;;;;;31.50;5.07;;;;;;;6.04;100.00;100482.09;5010559;28;20164;-69
2021/12/11 05:13:18;;;;;;;35.50;5.65;;;;;;;5.96;100.00;100485.88;5010658;28;20156;-68
2021/12/11 05:15:47;;;;;;;41.50;7.25;;;;;;;5.84;100.00;100492.94;5009973;28;20273;-68
2021/12/11 05:18:16;;;;;;;45.08;11.65;;;;;;;5.81;100.00;100504.84;5017678;28;20033;-68
2021/12/11 05:20:44;;;;;;;45.45;12.25;;;;;;;5.72;100.00;100510.69;5010690;28;20583;-68
2021/12/11 05:23:09;;;;;;;79.82;15.07;;;;;;;5.58;100.00;100521.47;5012716;28;20068;-68
2021/12/11 05:25:35;;;;;;;78.55;16.27;;;;;;;5.28;100.00;100534.63;5010403;28;20052;-68
2021/12/11 05:28:01;;;;;;;74.22;16.60;;;;;;;5.19;100.00;100538.59;5009069;28;20521;-68
2021/12/11 05:30:40;;;;;;;42.85;15.88;;;;;;;4.93;100.00;100550.25;5020049;28;20060;-68
2021/12/11 05:33:08;;;;;;;36.35;18.15;;;;;;;4.55;100.00;100542.28;5007781;28;20040;-68
2021/12/11 05:35:39;;;;;;;42.40;18.63;;;;;;;4.36;100.00;100564.47;4998130;28;20140;-68
2021/12/11 05:38:11;;;;;;;42.05;20.58;;;;;;;4.15;100.00;100571.69;5024047;28;20033;-68
2021/12/11 05:40:39;;;;;;;45.13;22.13;;;;;;;4.02;100.00;100594.81;5009871;28;20562;-69
2021/12/11 05:43:10;;;;;;;51.65;23.98;;;;;;;3.83;100.00;100599.13;5009989;28;20051;-69
2021/12/11 05:45:36;;;;;;;49.90;23.88;;;;;;;3.65;100.00;100608.53;5009300;28;20030;-69
2021/12/11 05:48:04;;;;;;;55.63;26.63;;;;;;;3.52;100.00;100616.50;5024923;28;20405;-69
2021/12/11 05:50:41;;;;;;;52.70;24.77;;;;;;;3.46;100.00;100617.31;5024352;28;20469;-69
2021/12/11 05:53:12;;;;;;;58.70;26.63;;;;;;;3.34;100.00;100626.91;5010672;28;20492;-69
2021/12/11 05:55:42;;;;;;;61.20;28.58;;;;;;;3.26;100.00;100622.59;5024051;28;20044;-69
2021/12/11 05:58:13;;;;;;;59.78;28.23;;;;;;;3.24;100.00;100634.41;5016753;28;20040;-69
2021/12/11 06:00:45;;;;;;;59.70;28.15;;;;;;;3.21;100.00;100650.75;5008872;28;21937;-69
2021/12/11 06:03:15;;;;;;;55.45;27.75;;;;;;;3.06;100.00;100654.38;5014475;28;20536;-69
2021/12/11 06:05:49;;;;;;;58.83;26.80;;;;;;;3.00;100.00;100664.94;5009256;28;20614;-69
2021/12/11 06:08:17;;;;;;;52.92;26.70;;;;;;;2.97;100.00;100671.47;5015953;28;20484;-68
2021/12/11 06:10:45;;;;;;;57.75;27.55;;;;;;;2.90;100.00;100683.88;5009671;28;20454;-68
2021/12/11 06:13:11;;;;;;;57.67;28.10;;;;;;;2.79;100.00;100674.69;5007983;28;20639;-68
2021/12/11 06:15:36;;;;;;;62.47;29.38;;;;;;;2.78;100.00;100688.13;5009777;28;20043;-68
2021/12/11 06:18:02;;;;;;;54.95;28.73;;;;;;;2.80;100.00;100699.34;5008183;28;20060;-68
2021/12/11 06:20:32;;;;;;;61.92;28.40;;;;;;;2.76;100.00;100706.03;5009404;28;20040;-69
2021/12/11 06:23:00;;;;;;;71.68;28.75;;;;;;;2.42;100.00;100685.69;5018059;28;20198;-68
2021/12/11 06:25:28;;;;;;;59.67;28.65;;;;;;;2.66;100.00;100718.81;5007385;28;20033;-69
2021/12/11 06:27:54;;;;;;;63.53;28.00;;;;;;;2.72;100.00;100728.66;5008606;28;20029;-69
2021/12/11 06:30:22;;;;;;;62.63;29.38;;;;;;;2.61;100.00;100729.22;5008304;28;20033;-69
2021/12/11 06:32:49;;;;;;;61.13;28.60;;;;;;;2.59;100.00;100739.16;5015655;28;20033;-76
2021/12/11 06:35:33;;;;;;;62.25;29.42;;;;;;;2.53;100.00;100748.72;5013260;28;20401;-73
2021/12/11 06:38:02;;;;;;;61.88;28.48;;;;;;;2.47;100.00;100755.59;5013392;28;20061;-76
2021/12/11 06:40:33;;;;;;;64.40;29.80;;;;;;;2.40;100.00;100765.31;5009162;28;20064;-76
2021/12/11 06:42:59;;;;;;;63.00;29.45;;;;;;;2.26;100.00;100753.00;5007751;28;20033;-75
2021/12/11 06:45:27;;;;;;;65.30;29.40;;;;;;;2.03;100.00;100726.75;5008449;28;20543;-76
2021/12/11 06:47:54;;;;;;;68.10;31.27;;;;;;;2.21;100.00;100776.59;5007815;28;20029;-75
2021/12/11 06:50:20;;;;;;;59.25;29.58;;;;;;;2.11;100.00;100776.91;5018861;28;20025;-75
2021/12/11 06:52:49;;;;;;;68.88;31.23;;;;;;;2.07;100.00;100788.91;5006845;28;20040;-76
2021/12/11 06:55:16;;;;;;;66.30;30.77;;;;;;;1.99;100.00;100789.03;5009777;28;20481;-75
2021/12/11 06:57:44;;;;;;;70.50;31.85;;;;;;;1.84;100.00;100775.88;5007745;28;20025;-76
2021/12/11 07:00:11;;;;;;;73.85;32.15;;;;;;;1.78;100.00;100795.13;5010200;28;20087;-76
2021/12/11 07:02:39;;;;;;;78.40;32.78;;;;;;;1.71;100.00;100798.72;5015411;28;20063;-76
2021/12/11 07:05:09;;;;;;;81.38;34.58;;;;;;;1.68;100.00;100815.78;5014073;28;20056;-76
2021/12/11 07:07:36;;;;;;;75.35;33.92;;;;;;;1.61;100.00;100812.25;5013037;28;20600;-75
2021/12/11 07:10:10;;;;;;;75.22;32.63;;;;;;;1.56;100.00;100822.59;5013891;28;20102;-75
2021/12/11 07:12:40;;;;;;;75.15;32.90;;;;;;;1.39;100.00;100814.88;5009734;28;20037;-75
2021/12/11 07:15:08;;;;;;;77.47;32.28;;;;;;;1.35;100.00;100828.63;5024499;28;20114;-75
2021/12/11 07:17:34;;;;;;;74.97;31.92;;;;;;;1.26;100.00;100821.81;5008715;28;20048;-75
2021/12/11 07:20:02;;;;;;;76.93;33.15;;;;;;;1.14;100.00;100834.69;5008911;28;20033;-75
2021/12/11 07:22:30;;;;;;;75.53;32.30;;;;;;;0.97;100.00;100818.16;5008305;28;20033;-75
2021/12/11 07:25:06;;;;;;;72.28;30.50;;;;;;;0.99;100.00;100841.78;5011055;28;20129;-75
2021/12/11 07:27:35;;;;;;;72.20;30.23;;;;;;;0.86;100.00;100833.66;5013360;28;20572;-75
2021/12/11 07:30:00;;;;;;;66.28;28.17;;;;;;;0.79;100.00;100859.97;5010057;28;22061;-75
2021/12/11 07:32:26;;;;;;;74.00;30.75;;;;;;;0.73;100.00;100864.19;5009526;28;20041;-74
2021/12/11 07:34:56;;;;;;;66.45;29.38;;;;;;;0.62;100.00;100846.13;5010250;28;20028;-74
2021/12/11 07:37:22;;;;;;;69.70;30.65;;;;;;;0.67;100.00;100870.19;5009143;28;20157;-75
2021/12/11 07:39:48;;;;;;;69.40;30.02;;;;;;;0.66;100.00;100873.00;5008700;28;20098;-74
2021/12/11 07:42:15;;;;;;;69.82;30.40;;;;;;;0.66;100.00;100876.47;5009396;28;21720;-74
2021/12/11 07:44:41;;;;;;;73.28;30.17;;;;;;;0.70;100.00;100890.94;5008669;28;20512;-74
2021/12/11 07:47:11;;;;;;;62.67;28.90;;;;;;;0.73;100.00;100881.81;5008982;28;20111;-74
2021/12/11 07:49:37;;;;;;;81.65;32.17;;;;;;;0.75;100.00;100885.13;5008874;28;20338;-74
2021/12/11 07:52:05;;;;;;;73.55;31.40;;;;;;;0.82;100.00;100888.69;5008784;28;20033;-74
2021/12/11 07:54:35;;;;;;;69.75;31.50;;;;;;;0.89;100.00;100897.50;5008937;28;20029;-75
2021/12/11 07:57:05;;;;;;;71.90;30.83;;;;;;;0.94;100.00;100904.91;5013229;28;20041;-75
2021/12/11 07:59:33;;;;;;;75.65;30.52;;;;;;;0.94;100.00;100910.19;5012219;28;20041;-74
2021/12/11 08:01:58;;;;;;;81.25;33.63;;;;;;;0.90;100.00;100907.09;5012723;28;20029;-74
2021/12/11 08:04:24;;;;;;;70.03;31.50;;;;;;;0.95;100.00;100917.09;5025993;28;20559;-75
2021/12/11 08:06:50;;;;;;;68.70;30.63;;;;;;;0.86;100.00;100912.91;5015020;28;20067;-75
2021/12/11 08:09:18;;;;;;;73.22;32.03;;;;;;;1.04;100.00;100931.88;5010260;28;20111;-74
2021/12/11 08:11:46;;;;;;;90.97;34.08;;;;;;;1.04;100.00;100932.69;5019284;28;20049;-74
2021/12/11 08:14:12;;;;;;;92.95;33.42;;;;;;;1.15;100.00;100938.56;5027386;28;20459;-74
2021/12/11 08:16:52;;;;;;;125.38;35.55;;;;;;;1.27;100.00;100937.09;5012156;28;20048;-74
2021/12/11 08:19:22;;;;;;;119.90;37.70;;;;;;;1.51;100.00;100943.94;5016043;28;20380;-74
2021/12/11 08:21:52;;;;;;;138.43;37.60;;;;;;;1.59;100.00;100946.47;5011332;28;20330;-74
2021/12/11 08:24:21;;;;;;;142.18;39.03;;;;;;;1.68;100.00;100954.13;5011835;28;20032;-75
2021/12/11 08:26:50;;;;;;;140.20;39.00;;;;;;;1.68;100.00;100956.78;5011230;28;20041;-76
2021/12/11 08:29:18;;;;;;;143.15;41.20;;;;;;;1.72;100.00;100973.13;5017743;28;20106;-75
2021/12/11 08:31:49;;;;;;;126.13;37.95;;;;;;;1.74;100.00;100955.22;5012650;28;20163;-75
2021/12/11 08:34:15;;;;;;;160.40;40.03;;;;;;;1.82;100.00;100951.66;5011316;28;20037;-75
2021/12/11 08:36:43;;;;;;;162.30;41.13;;;;;;;1.95;100.00;100962.38;5010866;28;20748;-76
2021/12/11 08:39:11;;;;;;;160.00;41.65;;;;;;;2.10;100.00;100976.41;4983069;28;20043;-76
2021/12/11 08:41:37;;;;;;;127.25;37.20;;;;;;;2.16;100.00;100970.38;5011787;28;20055;-76
2021/12/11 08:44:10;;;;;;;154.05;40.67;;;;;;;2.31;100.00;100983.59;5010379;28;20124;-76
2021/12/11 08:46:41;;;;;;;151.73;37.65;;;;;;;2.32;100.00;100974.63;5013431;28;20079;-76
2021/12/11 08:49:18;;;;;;;125.25;37.53;;;;;;;2.32;100.00;100966.69;5025679;28;20152;-75
2021/12/11 08:51:55;;;;;;;120.32;34.85;;;;;;;2.55;100.00;100984.25;5015127;28;20120;-74
2021/12/11 08:54:23;;;;;;;125.50;32.97;;;;;;;2.88;100.00;100998.59;5008905;28;20530;-75
2021/12/11 08:56:52;;;;;;;122.93;33.20;;;;;;;2.96;100.00;100977.28;5010219;28;20130;-76
2021/12/11 08:59:24;;;;;;;127.57;31.83;;;;;;;3.30;100.00;101004.84;5002526;28;20026;-76
2021/12/11 09:02:13;;;;;;;129.23;32.92;;;;;;;3.57;100.00;101013.78;5025615;28;20037;-75
2021/12/11 09:04:48;;;;;;;118.38;32.83;;;;;;;3.77;100.00;101020.06;5008670;28;20480;-76
2021/12/11 09:07:31;;;;;;;107.28;32.40;;;;;;;4.00;100.00;101017.13;5008564;28;20033;-76
2021/12/11 09:10:20;;;;;;;113.90;32.92;;;;;;;4.15;100.00;101019.59;5013198;28;20618;-75
2021/12/11 09:13:00;;;;;;;100.30;31.90;;;;;;;4.24;100.00;101022.94;5010302;28;20488;-76
2021/12/11 09:15:36;;;;;;;81.30;30.23;;;;;;;4.36;100.00;101032.78;5008062;28;20090;-75
2021/12/11 09:18:08;;;;;;;90.72;31.08;;;;;;;4.46;100.00;101041.16;5008433;28;20030;-76
2021/12/11 09:20:37;;;;;;;88.35;30.90;;;;;;;4.46;100.00;101043.00;5008028;28;20139;-69
2021/12/11 09:23:35;;;;;;;82.00;29.80;;;;;;;4.49;100.00;101047.94;5013098;28;20036;-69
2021/12/11 09:26:10;;;;;;;79.65;30.52;;;;;;;4.44;100.00;101045.06;5009403;28;20036;-68
2021/12/11 09:28:52;;;;;;;79.47;30.35;;;;;;;4.40;100.00;101035.88;4996671;28;20419;-68
2021/12/11 09:31:38;;;;;;;87.32;28.45;;;;;;;4.32;100.00;101054.63;5023670;28;20497;-68
2021/12/11 09:34:23;;;;;;;93.65;29.70;;;;;;;4.27;100.00;101049.09;4996267;28;20032;-68
2021/12/11 09:36:54;;;;;;;98.85;30.33;;;;;;;4.22;100.00;101062.94;5008915;28;20037;-69
2021/12/11 09:39:28;;;;;;;91.65;30.30;;;;;;;4.21;100.00;101051.50;5009313;28;20536;-68
2021/12/11 09:41:56;;;;;;;94.18;28.67;;;;;;;4.19;100.00;101056.19;5007760;28;20465;-69
2021/12/11 09:44:46;;;;;;;100.28;29.92;;;;;;;4.19;100.00;101063.34;5008433;28;20493;-68
2021/12/11 09:47:30;;;;;;;86.70;28.58;;;;;;;4.22;100.00;101068.25;5008834;28;20059;-68
2021/12/11 09:50:04;;;;;;;94.57;28.48;;;;;;;4.27;100.00;101068.50;5008475;28;20037;-69
2021/12/11 09:52:34;;;;;;;104.05;30.17;;;;;;;4.26;100.00;101060.72;4998918;28;20267;-68
2021/12/11 09:55:15;;;;;;;97.00;28.52;;;;;;;4.29;100.00;101079.72;5008489;28;20025;-69
2021/12/11 09:57:44;;;;;;;84.50;29.02;;;;;;;4.27;100.00;101059.72;5013090;28;20044;-68
2021/12/11 10:00:29;;;;;;;81.63;28.75;;;;;;;4.45;100.00;101079.38;4998257;28;20064;-68
2021/12/11 10:03:02;;;;;;;65.68;26.67;;;;;;;4.44;100.00;101077.75;5007905;28;20047;-68
2021/12/11 10:05:45;;;;;;;71.90;25.38;;;;;;;4.51;100.00;101083.09;5008020;28;20319;-68
2021/12/11 10:11:01;;;;;;;71.85;24.63;;;;;;;4.52;100.00;101091.88;4998968;28;20041;-68
2021/12/11 10:13:31;;;;;;;74.60;24.20;;;;;;;4.63;100.00;101105.41;5009096;28;20603;-68
2021/12/11 10:15:57;;;;;;;74.35;22.77;;;;;;;4.64;100.00;101099.09;5011161;28;20037;-68
2021/12/11 10:18:24;;;;;;;64.15;21.88;;;;;;;4.76;100.00;101112.63;5004322;28;20041;-69
2021/12/11 10:20:57;;;;;;;59.97;17.65;;;;;;;4.86;100.00;101117.56;5014170;28;20405;-67
2021/12/11 10:23:26;;;;;;;;;;;;;;;4.95;100.00;101121.66;5007877;28;20044;-69
2021/12/11 10:25:56;;;;;;;50.45;17.90;;;;;;;4.94;100.00;101110.19;5006955;28;19939;-69
2021/12/11 10:28:23;;;;;;;48.20;16.27;;;;;;;5.06;100.00;101118.44;5005087;28;20152;-69
2021/12/11 10:31:06;;;;;;;51.45;16.02;;;;;;;5.15;100.00;101111.06;5022607;28;20033;-69
2021/12/11 10:33:31;;;;;;;;;;;;;;;5.22;100.00;101117.22;5008663;28;20259;-69
2021/12/11 10:36:01;;;;;;;44.13;15.23;;;;;;;5.26;100.00;101119.25;5007132;28;20418;-69
2021/12/11 10:38:27;;;;;;;54.50;16.75;;;;;;;5.25;100.00;101120.28;5008081;28;20287;-69
2021/12/11 10:40:55;;;;;;;46.92;16.15;;;;;;;5.45;100.00;101122.94;5006999;28;20095;-69
2021/12/11 10:43:28;;;;;;;36.28;15.75;;;;;;;5.61;100.00;101127.03;5008122;28;20037;-69
2021/12/11 10:45:55;;;;;;;63.60;15.82;;;;;;;5.66;100.00;101126.44;5007250;28;20033;-69
2021/12/11 10:48:24;;;;;;;50.20;14.82;;;;;;;5.79;100.00;101116.63;5007369;28;20075;-69
2021/12/11 10:51:02;;;;;;;35.78;13.98;;;;;;;6.02;100.00;101120.69;5009982;28;20128;-69
2021/12/11 10:53:29;;;;;;;44.13;13.98;;;;;;;6.07;100.00;101132.38;5006274;28;20037;-69
2021/12/11 10:55:56;;;;;;;46.25;13.82;;;;;;;6.10;100.00;101134.59;5007759;28;20037;-70
2021/12/11 10:58:39;;;;;;;42.88;12.57;;;;;;;6.07;100.00;101132.38;5009165;28;20445;-69
2021/12/11 11:01:17;;;;;;;51.50;12.55;;;;;;;6.08;100.00;101149.16;5017046;28;20619;-69
2021/12/11 11:03:47;;;;;;;60.13;13.30;;;;;;;6.05;100.00;101144.25;5005565;28;20041;-69
2021/12/11 11:06:13;;;;;;;43.25;11.95;;;;;;;6.08;100.00;101138.50;5011325;28;20060;-74
2021/12/11 11:08:40;;;;;;;43.78;11.13;;;;;;;6.16;100.00;101152.44;5016204;28;20025;-75
2021/12/11 11:11:12;;;;;;;34.75;11.23;;;;;;;6.07;100.00;101132.38;5011050;28;20705;-76
2021/12/11 11:13:37;;;;;;;48.33;12.57;;;;;;;6.07;100.00;101131.56;5008748;28;20025;-74
2021/12/11 11:16:06;;;;;;;43.45;11.88;;;;;;;6.04;100.00;101145.28;5006454;28;20972;-75
2021/12/11 11:18:32;;;;;;;37.90;12.93;;;;;;;6.06;100.00;101136.06;5023576;28;20092;-73
2021/12/11 11:21:08;;;;;;;52.75;12.73;;;;;;;6.13;100.00;101141.38;5011174;28;20080;-74
2021/12/11 11:23:35;;;;;;;43.35;11.25;;;;;;;6.15;100.00;101141.97;5011837;28;20136;-73
2021/12/11 11:26:07;;;;;;;54.40;12.27;;;;;;;6.12;100.00;101155.72;5011398;28;20767;-75
2021/12/11 11:28:33;;;;;;;;;;;;;;;6.24;100.00;101150.56;5011108;28;20037;-74
2021/12/11 11:31:15;;;;;;;40.08;12.48;;;;;;;6.34;100.00;101159.75;5010000;28;20457;-75
2021/12/11 11:33:43;;;;;;;;;;;;;;;6.32;100.00;101163.66;5013839;28;20044;-74
2021/12/11 11:36:13;;;;;;;40.47;10.52;;;;;;;6.28;100.00;101163.28;5017639;28;20007;-75
2021/12/11 11:38:41;;;;;;;50.40;10.57;;;;;;;6.37;100.00;101159.34;5010594;28;20072;-75
2021/12/11 11:41:11;;;;;;;39.60;9.25;;;;;;;6.41;100.00;101162.41;5009996;28;20285;-73
2021/12/11 11:43:39;;;;;;;32.40;6.72;;;;;;;6.40;100.00;101169.59;5012071;28;20055;-75
2021/12/11 11:46:06;;;;;;;25.77;4.95;;;;;;;6.38;100.00;101165.50;5011515;28;20032;-75
2021/12/11 11:48:33;;;;;;;29.83;3.75;;;;;;;6.49;100.00;101174.69;5010847;28;20032;-74
2021/12/11 11:51:02;;;;;;;30.52;3.45;;;;;;;6.39;100.00;101177.81;5016947;28;20100;-75